createdAt,value
2019-01-29T00:00:43.525Z,1.92
2019-01-29T00:01:43.560Z,1.93
2019-01-29T00:02:45.267Z,1.93
2019-01-29T00:03:43.472Z,1.96
2019-01-29T00:04:43.519Z,1.97
2019-01-29T00:05:43.404Z,2.02
2019-01-29T00:06:43.712Z,2.02
2019-01-29T00:07:43.497Z,2.03
2019-01-29T00:08:43.381Z,2.01
2019-01-29T00:09:43.434Z,2.01
2019-01-29T00:10:43.419Z,2.01
2019-01-29T00:11:43.485Z,2.03
2019-01-29T00:12:43.559Z,2.03
2019-01-29T00:13:43.446Z,2.04
2019-01-29T00:14:43.476Z,2.05
2019-01-29T00:15:43.461Z,2.02
2019-01-29T00:16:43.502Z,2.07
2019-01-29T00:17:44.124Z,2.06
2019-01-29T00:18:43.363Z,2.05
2019-01-29T00:19:43.710Z,2.06
2019-01-29T00:20:43.445Z,2.05
2019-01-29T00:21:43.359Z,2.07
2019-01-29T00:22:43.477Z,2.07
2019-01-29T00:23:43.484Z,2.07
2019-01-29T00:24:43.605Z,2.07
2019-01-29T00:25:43.450Z,2.07
2019-01-29T00:26:43.403Z,2.06
2019-01-29T00:27:43.690Z,2.07
2019-01-29T00:28:44.812Z,2.07
2019-01-29T00:29:43.814Z,2.05
2019-01-29T00:30:43.427Z,2.06
2019-01-29T00:31:43.356Z,2.06
2019-01-29T00:32:44.012Z,2.05
2019-01-29T00:33:45.456Z,2.05
2019-01-29T00:34:43.636Z,2.05
2019-01-29T00:35:43.498Z,2.03
2019-01-29T00:36:43.728Z,2.07
2019-01-29T00:37:44.280Z,2.08
2019-01-29T00:38:43.465Z,2.06
2019-01-29T00:39:43.413Z,2.06
2019-01-29T00:40:43.314Z,2.08
2019-01-29T00:41:43.377Z,2.06
2019-01-29T00:42:43.895Z,2.06
2019-01-29T00:43:43.357Z,2.06
2019-01-29T00:44:44.013Z,2.07
2019-01-29T00:45:43.522Z,2.06
2019-01-29T00:46:43.594Z,2.05
2019-01-29T00:47:44.058Z,2.06
2019-01-29T00:48:43.390Z,2.05
2019-01-29T00:49:43.406Z,2.05
2019-01-29T00:50:43.886Z,2.03
2019-01-29T00:51:43.395Z,2.05
2019-01-29T00:52:44.930Z,2.03
2019-01-29T00:53:44.380Z,2.03
2019-01-29T00:54:43.387Z,2.02
2019-01-29T00:55:44.075Z,2.07
2019-01-29T00:56:43.830Z,2.07
2019-01-29T00:57:43.421Z,2.06
2019-01-29T00:58:43.452Z,2.07
2019-01-29T00:59:43.584Z,2.1
2019-01-29T01:00:43.326Z,2.11
2019-01-29T01:01:43.449Z,2.09
2019-01-29T01:02:43.612Z,2.11
2019-01-29T01:03:43.612Z,2.11
2019-01-29T01:04:43.712Z,2.08
2019-01-29T01:05:43.321Z,2.1
2019-01-29T01:06:43.480Z,2.09
2019-01-29T01:07:43.346Z,2.1
2019-01-29T01:08:43.575Z,2.08
2019-01-29T01:09:43.394Z,2.08
2019-01-29T01:10:43.449Z,2.1
2019-01-29T01:11:44.239Z,2.08
2019-01-29T01:12:43.301Z,2.1
2019-01-29T01:13:44.001Z,2.09
2019-01-29T01:14:43.600Z,2.1
2019-01-29T01:15:43.588Z,2.11
2019-01-29T01:16:43.333Z,2.1
2019-01-29T01:17:44.032Z,2.1
2019-01-29T01:18:43.424Z,2.09
2019-01-29T01:19:43.612Z,2.09
2019-01-29T01:20:44.869Z,2.07
2019-01-29T01:21:43.373Z,2.1
2019-01-29T01:22:51.772Z,2.08
2019-01-29T01:23:43.429Z,2.1
2019-01-29T01:24:43.541Z,2.1
2019-01-29T01:25:43.294Z,2.1
2019-01-29T01:26:43.439Z,2.11
2019-01-29T01:27:43.326Z,2.11
2019-01-29T01:28:43.391Z,2.1
2019-01-29T01:29:43.340Z,2.1
2019-01-29T01:30:43.333Z,2.1
2019-01-29T01:31:43.269Z,2.1
2019-01-29T01:32:43.497Z,2.1
2019-01-29T01:33:43.863Z,2.14
2019-01-29T01:34:43.266Z,2.1
2019-01-29T01:35:43.504Z,2.1
2019-01-29T01:36:44.369Z,2.1
2019-01-29T01:37:43.354Z,2.09
2019-01-29T01:38:43.607Z,2.11
2019-01-29T01:39:43.291Z,2.11
2019-01-29T01:40:44.025Z,2.11
2019-01-29T01:41:43.674Z,2.08
2019-01-29T01:42:43.403Z,2.09
2019-01-29T01:43:43.481Z,2.06
2019-01-29T01:44:43.566Z,2.05
2019-01-29T01:45:43.292Z,2.06
2019-01-29T01:46:43.238Z,2.03
2019-01-29T01:47:43.424Z,2.05
2019-01-29T01:48:43.322Z,2.04
2019-01-29T01:49:43.268Z,2.05
2019-01-29T01:50:43.338Z,2.07
2019-01-29T01:51:43.248Z,2.05
2019-01-29T01:52:43.524Z,2.05
2019-01-29T01:53:43.257Z,2.05
2019-01-29T01:54:43.223Z,2.05
2019-01-29T01:55:43.310Z,2.05
2019-01-29T01:56:43.239Z,2.05
2019-01-29T01:57:43.295Z,2.05
2019-01-29T01:58:43.404Z,2.04
2019-01-29T01:59:43.237Z,2.03
2019-01-29T02:00:43.255Z,2.01
2019-01-29T02:01:43.223Z,2.03
2019-01-29T02:02:43.556Z,2.02
2019-01-29T02:03:43.450Z,2.04
2019-01-29T02:04:43.539Z,2.02
2019-01-29T02:05:43.252Z,2.04
2019-01-29T02:06:43.235Z,2.05
2019-01-29T02:07:43.460Z,2.05
2019-01-29T02:08:43.253Z,2.04
2019-01-29T02:09:43.235Z,2.05
2019-01-29T02:10:43.266Z,2.05
2019-01-29T02:11:43.474Z,2.04
2019-01-29T02:12:43.466Z,2.05
2019-01-29T02:13:43.351Z,2.05
2019-01-29T02:14:43.478Z,2.05
2019-01-29T02:15:43.601Z,2.05
2019-01-29T02:16:44.153Z,2.05
2019-01-29T02:17:43.541Z,2.04
2019-01-29T02:18:43.337Z,2.04
2019-01-29T02:19:43.254Z,2.03
2019-01-29T02:20:43.426Z,2.01
2019-01-29T02:21:44.268Z,2.02
2019-01-29T02:22:43.409Z,2.03
2019-01-29T02:23:43.955Z,2.01
2019-01-29T02:24:43.409Z,1.99
2019-01-29T02:25:43.191Z,1.98
2019-01-29T02:26:43.785Z,1.99
2019-01-29T02:27:43.616Z,1.98
2019-01-29T02:28:43.215Z,1.98
2019-01-29T02:29:43.286Z,1.98
2019-01-29T02:30:43.205Z,1.97
2019-01-29T02:31:43.490Z,1.95
2019-01-29T02:32:43.549Z,1.97
2019-01-29T02:33:43.240Z,1.94
2019-01-29T02:34:43.282Z,1.95
2019-01-29T02:35:43.637Z,1.94
2019-01-29T02:36:43.235Z,1.92
2019-01-29T02:37:43.295Z,1.9
2019-01-29T02:38:43.479Z,1.9
2019-01-29T02:39:43.190Z,1.88
2019-01-29T02:40:43.205Z,1.87
2019-01-29T02:41:43.318Z,1.84
2019-01-29T02:42:43.827Z,1.87
2019-01-29T02:43:44.248Z,1.85
2019-01-29T02:44:43.154Z,1.85
2019-01-29T02:45:43.708Z,1.84
2019-01-29T02:46:43.671Z,1.86
2019-01-29T02:47:43.270Z,1.85
2019-01-29T02:48:43.616Z,1.91
2019-01-29T02:49:43.575Z,1.88
2019-01-29T02:50:43.265Z,1.87
2019-01-29T02:51:43.465Z,1.87
2019-01-29T02:52:43.225Z,1.85
2019-01-29T02:53:43.310Z,1.87
2019-01-29T02:54:43.192Z,1.87
2019-01-29T02:55:43.675Z,1.86
2019-01-29T02:56:43.332Z,1.86
2019-01-29T02:57:43.265Z,1.87
2019-01-29T02:58:43.374Z,1.87
2019-01-29T02:59:43.381Z,1.84
2019-01-29T03:00:43.395Z,1.85
2019-01-29T03:01:43.395Z,1.82
2019-01-29T03:02:43.159Z,1.84
2019-01-29T03:03:43.270Z,1.81
2019-01-29T03:04:43.249Z,1.82
2019-01-29T03:05:43.442Z,1.81
2019-01-29T03:06:43.175Z,1.82
2019-01-29T03:07:43.446Z,1.81
2019-01-29T03:08:43.343Z,1.81
2019-01-29T03:09:43.424Z,1.81
2019-01-29T03:10:43.145Z,1.8
2019-01-29T03:11:43.192Z,1.81
2019-01-29T03:12:44.227Z,1.81
2019-01-29T03:13:43.391Z,1.79
2019-01-29T03:14:43.818Z,1.81
2019-01-29T03:15:43.257Z,1.81
2019-01-29T03:16:43.196Z,1.83
2019-01-29T03:17:43.236Z,1.78
2019-01-29T03:18:43.202Z,1.81
2019-01-29T03:19:43.608Z,1.8
2019-01-29T03:20:43.356Z,1.79
2019-01-29T03:21:43.188Z,1.8
2019-01-29T03:22:43.259Z,1.79
2019-01-29T03:23:43.297Z,1.77
2019-01-29T03:24:43.206Z,1.78
2019-01-29T03:25:43.109Z,1.79
2019-01-29T03:26:43.272Z,1.79
2019-01-29T03:27:43.190Z,1.78
2019-01-29T03:28:43.095Z,1.8
2019-01-29T03:29:43.138Z,1.81
2019-01-29T03:30:43.827Z,1.79
2019-01-29T03:31:43.241Z,1.79
2019-01-29T03:32:43.248Z,1.79
2019-01-29T03:33:43.188Z,1.77
2019-01-29T03:34:43.130Z,1.79
2019-01-29T03:35:43.370Z,1.77
2019-01-29T03:36:43.193Z,1.76
2019-01-29T03:37:43.376Z,1.77
2019-01-29T03:38:43.211Z,1.75
2019-01-29T03:39:43.065Z,1.74
2019-01-29T03:40:43.095Z,1.74
2019-01-29T03:41:43.129Z,1.74
2019-01-29T03:42:43.216Z,1.73
2019-01-29T03:43:43.261Z,1.73
2019-01-29T03:44:43.365Z,1.72
2019-01-29T03:45:43.360Z,1.7
2019-01-29T03:46:43.122Z,1.71
2019-01-29T03:47:43.154Z,1.68
2019-01-29T03:48:43.792Z,1.71
2019-01-29T03:49:43.261Z,1.69
2019-01-29T03:50:43.347Z,1.68
2019-01-29T03:51:43.212Z,1.68
2019-01-29T03:52:43.192Z,1.65
2019-01-29T03:53:44.881Z,1.67
2019-01-29T03:54:43.218Z,1.67
2019-01-29T03:55:43.154Z,1.63
2019-01-29T03:56:43.302Z,1.66
2019-01-29T03:57:43.237Z,1.65
2019-01-29T03:58:43.193Z,1.66
2019-01-29T03:59:43.166Z,1.65
2019-01-29T04:00:43.058Z,1.65
2019-01-29T04:01:43.214Z,1.62
2019-01-29T04:02:43.036Z,1.62
2019-01-29T04:03:43.103Z,1.62
2019-01-29T04:04:43.419Z,1.62
2019-01-29T04:05:43.351Z,1.61
2019-01-29T04:06:43.215Z,1.62
2019-01-29T04:07:43.283Z,1.6
2019-01-29T04:08:43.129Z,1.6
2019-01-29T04:09:43.061Z,1.6
2019-01-29T04:10:43.003Z,1.6
2019-01-29T04:11:43.198Z,1.56
2019-01-29T04:12:43.074Z,1.57
2019-01-29T04:13:43.130Z,1.56
2019-01-29T04:14:43.187Z,1.55
2019-01-29T04:15:43.034Z,1.54
2019-01-29T04:16:43.193Z,1.53
2019-01-29T04:17:43.111Z,1.53
2019-01-29T04:18:43.211Z,1.53
2019-01-29T04:19:43.624Z,1.52
2019-01-29T04:20:43.429Z,1.5
2019-01-29T04:21:43.227Z,1.51
2019-01-29T04:22:43.280Z,1.49
2019-01-29T04:23:48.273Z,1.48
2019-01-29T04:24:42.998Z,1.48
2019-01-29T04:25:43.117Z,1.45
2019-01-29T04:26:43.925Z,1.45
2019-01-29T04:27:42.984Z,1.43
2019-01-29T04:28:43.601Z,1.41
2019-01-29T04:29:43.340Z,1.41
2019-01-29T04:30:44.345Z,1.38
2019-01-29T04:31:43.510Z,1.36
2019-01-29T04:32:43.295Z,1.36
2019-01-29T04:33:43.453Z,1.36
2019-01-29T04:34:44.799Z,1.37
2019-01-29T04:35:43.278Z,1.36
2019-01-29T04:36:43.158Z,1.33
2019-01-29T04:37:42.963Z,1.35
2019-01-29T04:38:42.982Z,1.31
2019-01-29T04:39:43.110Z,1.3
2019-01-29T04:40:43.146Z,1.31
2019-01-29T04:41:43.072Z,1.29
2019-01-29T04:42:43.800Z,1.3
2019-01-29T04:43:43.423Z,1.28
2019-01-29T04:44:42.955Z,1.28
2019-01-29T04:45:43.320Z,1.27
2019-01-29T04:46:42.955Z,1.27
2019-01-29T04:47:43.056Z,1.28
2019-01-29T04:48:43.414Z,1.26
2019-01-29T04:49:42.936Z,1.26
2019-01-29T04:50:43.352Z,1.25
2019-01-29T04:51:43.185Z,1.28
2019-01-29T04:52:43.536Z,1.27
2019-01-29T04:53:43.071Z,1.27
2019-01-29T04:54:43.915Z,1.25
2019-01-29T04:55:43.255Z,1.25
2019-01-29T04:56:42.977Z,1.24
2019-01-29T04:57:43.202Z,1.24
2019-01-29T04:58:43.345Z,1.25
2019-01-29T04:59:43.299Z,1.19
2019-01-29T05:00:43.397Z,1.15
2019-01-29T05:01:43.316Z,1.16
2019-01-29T05:02:43.326Z,1.19
2019-01-29T05:03:42.979Z,1.2
2019-01-29T05:04:43.443Z,1.18
2019-01-29T05:05:43.337Z,1.14
2019-01-29T05:06:43.033Z,1.14
2019-01-29T05:07:43.069Z,1.14
2019-01-29T05:08:43.309Z,1.16
2019-01-29T05:09:42.989Z,1.17
2019-01-29T05:10:43.027Z,1.18
2019-01-29T05:11:43.188Z,1.15
2019-01-29T05:12:43.225Z,1.15
2019-01-29T05:13:43.307Z,1.15
2019-01-29T05:14:42.951Z,1.16
2019-01-29T05:15:42.960Z,1.19
2019-01-29T05:16:42.943Z,1.19
2019-01-29T05:17:43.017Z,1.2
2019-01-29T05:18:42.992Z,1.19
2019-01-29T05:19:42.964Z,1.21
2019-01-29T05:20:43.187Z,1.2
2019-01-29T05:21:43.054Z,1.2
2019-01-29T05:22:42.982Z,1.21
2019-01-29T05:23:42.952Z,1.21
2019-01-29T05:24:43.012Z,1.19
2019-01-29T05:25:42.982Z,1.19
2019-01-29T05:26:42.977Z,1.19
2019-01-29T05:27:42.892Z,1.19
2019-01-29T05:28:42.928Z,1.2
2019-01-29T05:29:42.964Z,1.2
2019-01-29T05:30:43.144Z,1.21
2019-01-29T05:31:42.972Z,1.19
2019-01-29T05:32:44.291Z,1.19
2019-01-29T05:33:43.265Z,1.2
2019-01-29T05:34:43.227Z,1.2
2019-01-29T05:35:43.537Z,1.21
2019-01-29T05:36:43.020Z,1.21
2019-01-29T05:37:43.963Z,1.22
2019-01-29T05:38:43.843Z,1.24
2019-01-29T05:39:43.502Z,1.24
2019-01-29T05:40:43.391Z,1.25
2019-01-29T05:41:42.994Z,1.25
2019-01-29T05:42:42.973Z,1.25
2019-01-29T05:43:43.249Z,1.25
2019-01-29T05:44:42.958Z,1.26
2019-01-29T05:45:43.766Z,1.28
2019-01-29T05:46:43.272Z,1.29
2019-01-29T05:47:43.071Z,1.29
2019-01-29T05:48:42.956Z,1.3
2019-01-29T05:49:43.256Z,1.3
2019-01-29T05:50:42.879Z,1.31
2019-01-29T05:51:43.859Z,1.32
2019-01-29T05:52:44.842Z,1.34
2019-01-29T05:53:42.949Z,1.33
2019-01-29T05:54:43.778Z,1.36
2019-01-29T05:55:43.060Z,1.33
2019-01-29T05:56:43.299Z,1.35
2019-01-29T05:57:42.912Z,1.37
2019-01-29T05:58:44.889Z,1.33
2019-01-29T05:59:43.304Z,1.35
2019-01-29T06:00:42.929Z,1.36
2019-01-29T06:01:42.959Z,1.35
2019-01-29T06:02:43.046Z,1.36
2019-01-29T06:03:42.922Z,1.36
2019-01-29T06:04:43.258Z,1.35
2019-01-29T06:05:43.173Z,1.34
2019-01-29T06:06:44.687Z,1.38
2019-01-29T06:07:42.918Z,1.38
2019-01-29T06:08:42.869Z,1.4
2019-01-29T06:09:43.297Z,1.45
2019-01-29T06:10:43.938Z,1.45
2019-01-29T06:11:42.867Z,1.49
2019-01-29T06:12:42.930Z,1.5
2019-01-29T06:13:43.224Z,1.51
2019-01-29T06:14:42.967Z,1.55
2019-01-29T06:15:42.979Z,1.58
2019-01-29T06:16:43.119Z,1.58
2019-01-29T06:17:42.824Z,1.59
2019-01-29T06:18:43.254Z,1.6
2019-01-29T06:19:43.173Z,1.62
2019-01-29T06:20:42.922Z,1.65
2019-01-29T06:21:42.868Z,1.65
2019-01-29T06:22:42.882Z,1.65
2019-01-29T06:23:42.822Z,1.65
2019-01-29T06:24:42.978Z,1.65
2019-01-29T06:25:42.887Z,1.62
2019-01-29T06:26:43.219Z,1.65
2019-01-29T06:27:42.864Z,1.65
2019-01-29T06:28:43.026Z,1.66
2019-01-29T06:29:43.035Z,1.66
2019-01-29T06:30:44.586Z,1.67
2019-01-29T06:31:48.480Z,1.67
2019-01-29T06:32:43.141Z,1.67
2019-01-29T06:33:43.386Z,1.65
2019-01-29T06:34:42.879Z,1.66
2019-01-29T06:35:42.862Z,1.66
2019-01-29T06:36:42.920Z,1.66
2019-01-29T06:37:42.978Z,1.66
2019-01-29T06:38:43.083Z,1.66
2019-01-29T06:39:43.308Z,1.67
2019-01-29T06:40:42.879Z,1.68
2019-01-29T06:41:42.889Z,1.71
2019-01-29T06:42:42.805Z,1.72
2019-01-29T06:43:42.761Z,1.71
2019-01-29T06:44:43.351Z,1.7
2019-01-29T06:45:43.884Z,1.72
2019-01-29T06:46:43.128Z,1.73
2019-01-29T06:47:42.904Z,1.73
2019-01-29T06:48:42.906Z,1.72
2019-01-29T06:49:42.760Z,1.72
2019-01-29T06:50:43.677Z,1.69
2019-01-29T06:51:42.755Z,1.68
2019-01-29T06:52:42.987Z,1.71
2019-01-29T06:53:43.768Z,1.68
2019-01-29T06:54:42.902Z,1.71
2019-01-29T06:55:42.887Z,1.71
2019-01-29T06:56:42.882Z,1.7
2019-01-29T06:57:42.888Z,1.72
2019-01-29T06:58:42.753Z,1.72
2019-01-29T06:59:42.855Z,1.72
2019-01-29T07:00:42.846Z,1.7
2019-01-29T07:01:42.872Z,1.72
2019-01-29T07:02:42.802Z,1.73
2019-01-29T07:03:42.739Z,1.73
2019-01-29T07:04:42.844Z,1.74
2019-01-29T07:05:42.885Z,1.74
2019-01-29T07:06:42.877Z,1.74
2019-01-29T07:07:42.928Z,1.77
2019-01-29T07:08:42.748Z,1.78
2019-01-29T07:09:42.785Z,1.78
2019-01-29T07:10:44.554Z,1.77
2019-01-29T07:11:42.849Z,1.78
2019-01-29T07:12:42.876Z,1.78
2019-01-29T07:13:42.811Z,1.77
2019-01-29T07:14:42.696Z,1.77
2019-01-29T07:15:42.876Z,1.77
2019-01-29T07:16:42.781Z,1.76
2019-01-29T07:17:43.766Z,1.75
2019-01-29T07:18:42.824Z,1.77
2019-01-29T07:19:42.848Z,1.78
2019-01-29T07:20:42.963Z,1.78
2019-01-29T07:21:43.831Z,1.79
2019-01-29T07:22:42.824Z,1.79
2019-01-29T07:23:42.904Z,1.77
2019-01-29T07:24:43.505Z,1.76
2019-01-29T07:25:42.896Z,1.79
2019-01-29T07:26:43.304Z,1.8
2019-01-29T07:27:42.782Z,1.81
2019-01-29T07:28:42.983Z,1.8
2019-01-29T07:29:43.146Z,1.82
2019-01-29T07:30:43.209Z,1.81
2019-01-29T07:31:43.033Z,1.81
2019-01-29T07:32:42.873Z,1.82
2019-01-29T07:33:42.822Z,1.84
2019-01-29T07:34:43.044Z,1.84
2019-01-29T07:35:44.501Z,1.85
2019-01-29T07:36:42.945Z,1.85
2019-01-29T07:37:42.860Z,1.85
2019-01-29T07:38:42.958Z,1.86
2019-01-29T07:39:43.199Z,1.86
2019-01-29T07:40:43.073Z,1.87
2019-01-29T07:41:42.768Z,1.85
2019-01-29T07:42:43.037Z,1.84
2019-01-29T07:43:42.764Z,1.83
2019-01-29T07:44:42.749Z,1.83
2019-01-29T07:45:42.854Z,1.8
2019-01-29T07:46:42.792Z,1.81
2019-01-29T07:47:43.340Z,1.8
2019-01-29T07:48:43.439Z,1.79
2019-01-29T07:49:42.926Z,1.8
2019-01-29T07:50:42.719Z,1.8
2019-01-29T07:51:42.733Z,1.8
2019-01-29T07:52:42.676Z,1.8
2019-01-29T07:53:43.062Z,1.81
2019-01-29T07:54:51.711Z,1.81
2019-01-29T07:55:42.739Z,1.85
2019-01-29T07:56:42.721Z,1.83
2019-01-29T07:57:42.707Z,1.86
2019-01-29T07:58:42.736Z,1.85
2019-01-29T07:59:43.858Z,1.85
2019-01-29T08:00:42.907Z,1.85
2019-01-29T08:01:43.595Z,1.87
2019-01-29T08:02:42.685Z,1.86
2019-01-29T08:03:43.390Z,1.86
2019-01-29T08:04:42.820Z,1.87
2019-01-29T08:05:42.743Z,1.87
2019-01-29T08:06:43.403Z,1.85
2019-01-29T08:07:42.886Z,1.84
2019-01-29T08:08:42.885Z,1.83
2019-01-29T08:09:42.681Z,1.85
2019-01-29T08:10:42.717Z,1.82
2019-01-29T08:11:42.645Z,1.82
2019-01-29T08:12:42.754Z,1.84
2019-01-29T08:13:42.667Z,1.84
2019-01-29T08:14:43.074Z,1.85
2019-01-29T08:15:42.815Z,1.83
2019-01-29T08:16:42.785Z,1.85
2019-01-29T08:17:42.896Z,1.83
2019-01-29T08:18:42.708Z,1.86
2019-01-29T08:19:42.752Z,1.87
2019-01-29T08:20:43.262Z,1.87
2019-01-29T08:21:42.944Z,1.88
2019-01-29T08:22:42.691Z,1.89
2019-01-29T08:23:42.677Z,1.89
2019-01-29T08:24:42.879Z,1.91
2019-01-29T08:25:48.449Z,1.92
2019-01-29T08:26:42.922Z,1.91
2019-01-29T08:27:42.733Z,1.93
2019-01-29T08:28:42.610Z,1.92
2019-01-29T08:29:42.900Z,1.92
2019-01-29T08:30:42.985Z,1.93
2019-01-29T08:31:42.727Z,1.93
2019-01-29T08:32:43.484Z,1.93
2019-01-29T08:33:43.160Z,1.94
2019-01-29T08:34:42.943Z,1.94
2019-01-29T08:35:43.317Z,1.94
2019-01-29T08:36:44.462Z,1.95
2019-01-29T08:37:42.683Z,1.96
2019-01-29T08:38:42.860Z,1.97
2019-01-29T08:39:42.786Z,1.99
2019-01-29T08:40:42.570Z,1.99
2019-01-29T08:41:42.835Z,1.99
2019-01-29T08:42:42.720Z,2
2019-01-29T08:43:43.454Z,2.02
2019-01-29T08:44:42.657Z,2.05
2019-01-29T08:45:42.162Z,2.05
2019-01-29T08:46:42.898Z,2.06
2019-01-29T08:47:42.785Z,2.08
2019-01-29T08:48:42.708Z,2.07
2019-01-29T08:49:42.738Z,2.09
2019-01-29T08:50:42.714Z,2.11
2019-01-29T08:51:42.711Z,2.1
2019-01-29T08:52:43.101Z,2.09
2019-01-29T08:53:42.747Z,2.08
2019-01-29T08:54:42.688Z,2.11
2019-01-29T08:55:42.690Z,2.1
2019-01-29T08:56:42.646Z,2.1
2019-01-29T08:57:42.723Z,2.09
2019-01-29T08:58:42.756Z,2.09
2019-01-29T08:59:42.734Z,2.07
2019-01-29T09:00:42.743Z,2.09
2019-01-29T09:01:42.956Z,2.09
2019-01-29T09:02:42.685Z,2.07
2019-01-29T09:03:42.839Z,2.1
2019-01-29T09:04:42.707Z,2.11
2019-01-29T09:05:42.730Z,2.12
2019-01-29T09:06:42.910Z,2.12
2019-01-29T09:07:42.618Z,2.14
2019-01-29T09:08:42.693Z,2.16
2019-01-29T09:09:42.924Z,2.17
2019-01-29T09:10:42.791Z,2.18
2019-01-29T09:11:42.610Z,2.2
2019-01-29T09:12:42.872Z,2.22
2019-01-29T09:13:42.589Z,2.23
2019-01-29T09:14:42.593Z,2.25
2019-01-29T09:15:42.834Z,2.29
2019-01-29T09:16:42.618Z,2.31
2019-01-29T09:17:42.713Z,2.37
2019-01-29T09:18:42.736Z,2.39
2019-01-29T09:19:42.953Z,2.44
2019-01-29T09:20:43.174Z,2.49
2019-01-29T09:21:42.553Z,2.5
2019-01-29T09:22:42.697Z,2.56
2019-01-29T09:23:42.543Z,2.57
2019-01-29T09:24:43.465Z,2.61
2019-01-29T09:25:42.553Z,2.64
2019-01-29T09:26:42.691Z,2.72
2019-01-29T09:27:42.554Z,2.71
2019-01-29T09:28:42.899Z,2.75
2019-01-29T09:29:42.715Z,2.75
2019-01-29T09:30:44.270Z,2.76
2019-01-29T09:31:43.544Z,2.75
2019-01-29T09:32:44.402Z,2.76
2019-01-29T09:33:43.017Z,2.76
2019-01-29T09:34:42.654Z,2.78
2019-01-29T09:35:43.404Z,2.76
2019-01-29T09:36:42.536Z,2.79
2019-01-29T09:37:42.759Z,2.79
2019-01-29T09:38:42.811Z,2.79
2019-01-29T09:39:42.791Z,2.8
2019-01-29T09:40:44.363Z,2.8
2019-01-29T09:41:42.873Z,2.81
2019-01-29T09:42:42.578Z,2.81
2019-01-29T09:43:42.844Z,2.82
2019-01-29T09:44:44.329Z,2.85
2019-01-29T09:45:42.570Z,2.83
2019-01-29T09:46:42.815Z,2.86
2019-01-29T09:47:42.521Z,2.87
2019-01-29T09:48:42.760Z,2.91
2019-01-29T09:49:42.879Z,2.95
2019-01-29T09:50:42.646Z,2.97
2019-01-29T09:51:42.723Z,3
2019-01-29T09:52:42.544Z,3.01
2019-01-29T09:53:42.337Z,3.01
2019-01-29T09:54:42.885Z,3.05
2019-01-29T09:55:42.947Z,3.05
2019-01-29T09:56:42.559Z,3.07
2019-01-29T09:57:42.781Z,3.1
2019-01-29T09:58:43.242Z,3.12
2019-01-29T09:59:42.586Z,3.1
2019-01-29T10:00:48.991Z,3.1
2019-01-29T10:01:43.169Z,3.12
2019-01-29T10:02:42.631Z,3.17
2019-01-29T10:03:42.625Z,3.07
2019-01-29T10:04:42.618Z,3.08
2019-01-29T10:05:42.723Z,3.1
2019-01-29T10:06:43.025Z,3.12
2019-01-29T10:07:42.770Z,3.12
2019-01-29T10:08:44.336Z,3.16
2019-01-29T10:09:42.751Z,3.13
2019-01-29T10:10:42.876Z,3.17
2019-01-29T10:11:43.341Z,3.22
2019-01-29T10:12:42.810Z,3.26
2019-01-29T10:13:43.016Z,3.27
2019-01-29T10:14:42.623Z,3.32
2019-01-29T10:15:42.652Z,3.37
2019-01-29T10:16:42.704Z,3.33
2019-01-29T10:17:42.508Z,3.36
2019-01-29T10:18:42.498Z,3.36
2019-01-29T10:19:42.734Z,3.36
2019-01-29T10:20:42.588Z,3.37
2019-01-29T10:21:43.004Z,3.36
2019-01-29T10:22:42.592Z,3.39
2019-01-29T10:23:42.903Z,3.38
2019-01-29T10:24:42.548Z,3.38
2019-01-29T10:25:44.681Z,3.37
2019-01-29T10:26:42.553Z,3.37
2019-01-29T10:27:43.456Z,3.37
2019-01-29T10:28:42.722Z,3.42
2019-01-29T10:29:42.708Z,3.43
2019-01-29T10:30:42.528Z,3.43
2019-01-29T10:31:42.598Z,3.42
2019-01-29T10:32:42.777Z,3.42
2019-01-29T10:33:43.444Z,3.46
2019-01-29T10:34:42.617Z,3.44
2019-01-29T10:35:42.451Z,3.47
2019-01-29T10:36:42.462Z,3.47
2019-01-29T10:37:42.514Z,3.46
2019-01-29T10:38:42.426Z,3.49
2019-01-29T10:39:42.565Z,3.48
2019-01-29T10:40:42.534Z,3.54
2019-01-29T10:41:42.425Z,3.5
2019-01-29T10:42:49.766Z,3.53
2019-01-29T10:43:44.319Z,3.54
2019-01-29T10:44:42.466Z,3.55
2019-01-29T10:45:43.453Z,3.56
2019-01-29T10:46:42.497Z,3.62
2019-01-29T10:47:42.759Z,3.68
2019-01-29T10:48:42.426Z,3.71
2019-01-29T10:49:44.317Z,3.7
2019-01-29T10:50:42.454Z,3.74
2019-01-29T10:51:46.998Z,3.76
2019-01-29T10:52:43.628Z,3.75
2019-01-29T10:53:43.448Z,3.77
2019-01-29T10:54:42.442Z,3.76
2019-01-29T10:56:08.784Z,3.74
2019-01-29T10:57:03.129Z,3.65
2019-01-29T10:57:42.584Z,3.7
2019-01-29T10:58:43.107Z,3.71
2019-01-29T10:59:44.376Z,3.71
2019-01-29T11:00:42.479Z,3.66
2019-01-29T11:01:45.678Z,3.65
2019-01-29T11:02:43.436Z,3.65
2019-01-29T11:03:42.442Z,3.64
2019-01-29T11:04:42.539Z,3.65
2019-01-29T11:05:42.657Z,3.67
2019-01-29T11:06:49.079Z,3.68
2019-01-29T11:07:42.991Z,3.75
2019-01-29T11:08:43.589Z,3.7
2019-01-29T11:09:42.439Z,3.7
2019-01-29T11:10:42.516Z,3.72
2019-01-29T11:11:42.449Z,3.72
2019-01-29T11:12:46.239Z,3.7
2019-01-29T11:14:42.428Z,3.71
2019-01-29T11:15:43.267Z,3.68
2019-01-29T11:16:42.629Z,3.74
2019-01-29T11:17:42.597Z,3.71
2019-01-29T11:18:42.406Z,3.72
2019-01-29T11:19:44.238Z,3.68
2019-01-29T11:20:42.639Z,3.66
2019-01-29T11:21:42.803Z,3.67
2019-01-29T11:22:42.343Z,3.68
2019-01-29T11:23:44.125Z,3.62
2019-01-29T11:24:42.154Z,3.67
2019-01-29T11:26:42.830Z,3.72
2019-01-29T11:27:42.408Z,3.7
2019-01-29T11:28:42.133Z,3.73
2019-01-29T11:29:57.921Z,3.72
2019-01-29T11:30:42.812Z,3.76
2019-01-29T11:31:42.419Z,3.76
2019-01-29T11:32:42.607Z,3.78
2019-01-29T11:33:42.633Z,3.81
2019-01-29T11:34:42.413Z,3.78
2019-01-29T11:35:42.423Z,3.81
2019-01-29T11:36:43.606Z,3.82
2019-01-29T11:37:43.244Z,3.8
2019-01-29T11:38:42.613Z,3.81
2019-01-29T11:39:42.567Z,3.83
2019-01-29T11:40:42.446Z,3.85
2019-01-29T11:41:42.348Z,3.88
2019-01-29T11:42:42.539Z,3.85
2019-01-29T11:43:42.529Z,3.87
2019-01-29T11:44:42.467Z,3.86
2019-01-29T11:45:42.971Z,3.88
2019-01-29T11:46:42.715Z,3.89
2019-01-29T11:47:42.417Z,3.86
2019-01-29T11:48:42.440Z,3.81
2019-01-29T11:49:42.800Z,3.86
2019-01-29T11:50:43.321Z,3.88
2019-01-29T11:51:46.477Z,3.9
2019-01-29T11:52:42.618Z,4
2019-01-29T11:53:42.833Z,4.03
2019-01-29T11:54:43.363Z,4.07
2019-01-29T11:55:42.678Z,3.98
2019-01-29T11:56:42.875Z,3.92
2019-01-29T11:57:42.456Z,4.03
2019-01-29T11:58:44.175Z,4.1
2019-01-29T11:59:43.608Z,4.19
2019-01-29T12:00:42.422Z,4.19
2019-01-29T12:01:42.478Z,4.24
2019-01-29T12:02:42.518Z,4.34
2019-01-29T12:03:42.433Z,4.4
2019-01-29T12:04:42.624Z,4.44
2019-01-29T12:05:42.594Z,4.46
2019-01-29T12:06:42.063Z,4.5
2019-01-29T12:07:42.415Z,4.56
2019-01-29T12:08:42.411Z,4.6
2019-01-29T12:09:43.225Z,4.64
2019-01-29T12:10:42.395Z,4.6
2019-01-29T12:11:42.543Z,4.63
2019-01-29T12:12:42.278Z,4.53
2019-01-29T12:13:42.506Z,4.5
2019-01-29T12:14:42.672Z,4.51
2019-01-29T12:15:42.310Z,4.44
2019-01-29T12:16:42.427Z,4.47
2019-01-29T12:17:42.342Z,4.43
2019-01-29T12:18:42.268Z,4.48
2019-01-29T12:19:42.280Z,4.48
2019-01-29T12:20:42.541Z,4.52
2019-01-29T12:21:42.345Z,4.55
2019-01-29T12:22:42.503Z,4.57
2019-01-29T12:23:42.384Z,4.58
2019-01-29T12:24:42.315Z,4.61
2019-01-29T12:25:42.315Z,4.65
2019-01-29T12:26:42.602Z,4.69
2019-01-29T12:27:42.254Z,4.72
2019-01-29T12:28:42.806Z,4.76
2019-01-29T12:29:42.496Z,4.77
2019-01-29T12:30:42.348Z,4.84
2019-01-29T12:31:42.572Z,4.93
2019-01-29T12:32:42.345Z,4.98
2019-01-29T12:33:42.237Z,5.02
2019-01-29T12:34:42.269Z,5.01
2019-01-29T12:35:42.314Z,5.06
2019-01-29T12:36:43.393Z,5.09
2019-01-29T12:37:42.333Z,5.18
2019-01-29T12:38:42.442Z,5.24
2019-01-29T12:39:42.269Z,5.26
2019-01-29T12:40:42.454Z,5.25
2019-01-29T12:41:42.525Z,5.26
2019-01-29T12:42:42.279Z,5.29
2019-01-29T12:43:42.324Z,5.34
2019-01-29T12:44:42.836Z,5.33
2019-01-29T12:45:42.220Z,5.31
2019-01-29T12:46:42.316Z,5.3
2019-01-29T12:47:56.454Z,5.25
2019-01-29T12:48:42.327Z,5.23
2019-01-29T12:49:42.343Z,5.19
2019-01-29T12:50:42.342Z,5.19
2019-01-29T12:51:42.410Z,5.15
2019-01-29T12:52:43.418Z,5.11
2019-01-29T12:53:42.341Z,5.08
2019-01-29T12:54:42.329Z,5.06
2019-01-29T12:55:42.781Z,5.02
2019-01-29T12:56:42.252Z,4.99
2019-01-29T12:57:43.198Z,4.96
2019-01-29T12:58:42.404Z,4.94
2019-01-29T12:59:42.516Z,4.95
2019-01-29T13:00:42.274Z,4.86
2019-01-29T13:01:42.222Z,4.83
2019-01-29T13:02:42.771Z,4.82
2019-01-29T13:03:42.505Z,4.83
2019-01-29T13:04:42.633Z,4.81
2019-01-29T13:05:42.303Z,4.82
2019-01-29T13:06:42.651Z,4.82
2019-01-29T13:07:42.236Z,4.82
2019-01-29T13:08:42.570Z,4.82
2019-01-29T13:09:42.360Z,4.77
2019-01-29T13:10:42.223Z,4.78
2019-01-29T13:11:42.933Z,4.82
2019-01-29T13:12:42.637Z,4.8
2019-01-29T13:13:42.495Z,4.84
2019-01-29T13:14:42.275Z,4.92
2019-01-29T13:15:42.281Z,4.98
2019-01-29T13:16:42.763Z,5.07
2019-01-29T13:17:42.453Z,5.15
2019-01-29T13:18:59.047Z,5.16
2019-01-29T13:19:42.451Z,5.14
2019-01-29T13:20:43.003Z,5.11
2019-01-29T13:21:42.278Z,5.12
2019-01-29T13:22:42.436Z,5.17
2019-01-29T13:23:42.692Z,5.18